createdAt,value
2018-10-05T00:00:24.993Z,53.72
2018-10-05T00:01:25.028Z,53.43
2018-10-05T00:02:25.065Z,53.81
2018-10-05T00:03:25.098Z,52.95
2018-10-05T00:04:25.136Z,53.05
2018-10-05T00:05:25.212Z,52.56
2018-10-05T00:06:25.210Z,53.14
2018-10-05T00:07:25.242Z,52.85
2018-10-05T00:08:25.278Z,53.14
2018-10-05T00:09:25.565Z,52.56
2018-10-05T00:10:25.349Z,53.02
2018-10-05T00:11:25.385Z,54.27
2018-10-05T00:12:25.420Z,55.13
2018-10-05T00:13:25.708Z,55.45
2018-10-05T00:14:25.492Z,55.81
2018-10-05T00:15:25.782Z,56.03
2018-10-05T00:16:25.564Z,56.32
2018-10-05T00:17:25.603Z,56.67
2018-10-05T00:18:25.638Z,56.60
2018-10-05T00:19:25.671Z,56.38
2018-10-05T00:20:25.769Z,56.58
2018-10-05T00:21:25.994Z,56.77
2018-10-05T00:22:25.778Z,56.99
2018-10-05T00:23:25.815Z,56.90
2018-10-05T00:24:25.851Z,57.28
2018-10-05T00:25:25.885Z,57.18
2018-10-05T00:26:25.922Z,57.18
2018-10-05T00:27:26.207Z,56.77
2018-10-05T00:28:25.999Z,56.99
2018-10-05T00:29:26.028Z,57.09
2018-10-05T00:30:26.063Z,56.99
2018-10-05T00:31:26.350Z,57.09
2018-10-05T00:32:26.229Z,56.99
2018-10-05T00:33:26.429Z,56.99
2018-10-05T00:34:26.206Z,57.47
2018-10-05T00:35:26.243Z,57.47
2018-10-05T00:36:26.531Z,57.76
2018-10-05T00:37:26.315Z,57.47
2018-10-05T00:38:26.357Z,57.28
2018-10-05T00:39:26.392Z,57.73
2018-10-05T00:40:26.444Z,56.99
2018-10-05T00:41:26.717Z,56.99
2018-10-05T00:42:26.493Z,57.09
2018-10-05T00:43:26.528Z,57.57
2018-10-05T00:44:26.816Z,57.47
2018-10-05T00:45:26.602Z,56.90
2018-10-05T00:46:26.643Z,56.87
2018-10-05T00:47:26.672Z,57.18
2018-10-05T00:48:26.710Z,57.25
2018-10-05T00:49:26.745Z,57.47
2018-10-05T00:50:26.786Z,57.37
2018-10-05T00:51:26.823Z,57.25
2018-10-05T00:52:26.858Z,57.18
2018-10-05T00:53:26.931Z,57.28
2018-10-05T00:54:26.922Z,57.09
2018-10-05T00:55:26.959Z,57.18
2018-10-05T00:56:27.244Z,57.09
2018-10-05T00:57:27.037Z,57.37
2018-10-05T00:58:27.072Z,57.28
2018-10-05T00:59:27.109Z,57.28
2018-10-05T01:00:27.145Z,57.28
2018-10-05T01:01:27.180Z,57.37
2018-10-05T01:02:27.216Z,57.25
2018-10-05T01:03:27.251Z,57.18
2018-10-05T01:04:27.288Z,57.15
2018-10-05T01:05:27.328Z,57.18
2018-10-05T01:06:27.352Z,57.37
2018-10-05T01:07:27.395Z,57.57
2018-10-05T01:08:27.424Z,57.76
2018-10-05T01:09:27.460Z,57.67
2018-10-05T01:10:27.502Z,57.76
2018-10-05T01:11:27.570Z,57.67
2018-10-05T01:12:27.825Z,57.47
2018-10-05T01:13:27.862Z,57.28
2018-10-05T01:14:27.645Z,57.73
2018-10-05T01:15:27.681Z,57.67
2018-10-05T01:16:27.717Z,57.57
2018-10-05T01:17:27.754Z,57.37
2018-10-05T01:18:27.782Z,57.67
2018-10-05T01:19:27.818Z,57.57
2018-10-05T01:20:27.854Z,57.67
2018-10-05T01:21:27.890Z,57.37
2018-10-05T01:22:27.924Z,57.47
2018-10-05T01:23:27.968Z,57.25
2018-10-05T01:24:27.997Z,57.28
2018-10-05T01:25:28.035Z,57.86
2018-10-05T01:26:28.068Z,57.54
2018-10-05T01:27:28.104Z,57.86
2018-10-05T01:28:28.141Z,57.76
2018-10-05T01:29:28.427Z,57.76
2018-10-05T01:30:28.464Z,57.35
2018-10-05T01:31:28.248Z,57.73
2018-10-05T01:32:28.290Z,57.45
2018-10-05T01:33:28.326Z,57.86
2018-10-05T01:34:28.355Z,57.64
2018-10-05T01:35:28.391Z,57.28
2018-10-05T01:36:28.427Z,57.67
2018-10-05T01:37:28.461Z,57.57
2018-10-05T01:38:28.506Z,57.64
2018-10-05T01:39:28.541Z,57.35
2018-10-05T01:40:28.821Z,57.64
2018-10-05T01:41:28.605Z,57.28
2018-10-05T01:42:28.641Z,57.28
2018-10-05T01:43:28.677Z,57.37
2018-10-05T01:44:28.714Z,57.37
2018-10-05T01:45:28.999Z,57.67
2018-10-05T01:46:28.791Z,57.73
2018-10-05T01:47:28.820Z,57.45
2018-10-05T01:48:28.863Z,57.64
2018-10-05T01:49:29.150Z,57.37
2018-10-05T01:50:28.935Z,57.47
2018-10-05T01:51:28.964Z,57.28
2018-10-05T01:52:29.006Z,57.37
2018-10-05T01:53:29.093Z,57.47
2018-10-05T01:54:29.079Z,57.37
2018-10-05T01:55:29.106Z,57.67
2018-10-05T01:56:29.144Z,57.95
2018-10-05T01:57:29.178Z,58.12
2018-10-05T01:58:29.215Z,58.31
2018-10-05T01:59:29.501Z,57.83
2018-10-05T02:00:29.289Z,58.02
2018-10-05T02:01:29.574Z,57.76
2018-10-05T02:02:29.390Z,57.67
2018-10-05T02:03:29.395Z,57.64
2018-10-05T02:04:29.436Z,57.25
2018-10-05T02:05:29.472Z,57.45
2018-10-05T02:06:29.499Z,57.25
2018-10-05T02:07:29.537Z,57.54
2018-10-05T02:08:29.822Z,57.54
2018-10-05T02:09:29.609Z,57.57
2018-10-05T02:10:29.904Z,57.35
2018-10-05T02:11:29.687Z,57.45
2018-10-05T02:12:29.723Z,57.37
2018-10-05T02:13:29.759Z,57.67
2018-10-05T02:14:29.794Z,57.28
2018-10-05T02:15:29.830Z,57.47
2018-10-05T02:16:30.116Z,57.47
2018-10-05T02:17:29.902Z,57.45
2018-10-05T02:18:30.180Z,57.35
2018-10-05T02:19:29.965Z,57.35
2018-10-05T02:20:30.002Z,57.57
2018-10-05T02:21:30.040Z,57.28
2018-10-05T02:22:30.082Z,57.45
2018-10-05T02:23:30.118Z,57.37
2018-10-05T02:24:30.148Z,57.47
2018-10-05T02:25:30.432Z,57.45
2018-10-05T02:26:30.466Z,57.54
2018-10-05T02:27:30.293Z,57.64
2018-10-05T02:28:30.291Z,57.83
2018-10-05T02:29:30.325Z,57.28
2018-10-05T02:30:30.612Z,57.47
2018-10-05T02:31:30.396Z,57.25
2018-10-05T02:32:30.438Z,57.64
2018-10-05T02:33:30.474Z,57.73
2018-10-05T02:34:30.503Z,57.45
2018-10-05T02:35:30.543Z,57.73
2018-10-05T02:36:30.575Z,57.73
2018-10-05T02:37:30.612Z,57.83
2018-10-05T02:38:30.673Z,58.05
2018-10-05T02:39:30.939Z,58.24
2018-10-05T02:40:30.724Z,58.24
2018-10-05T02:41:30.810Z,58.02
2018-10-05T02:42:30.792Z,58.34
2018-10-05T02:43:30.825Z,58.12
2018-10-05T02:44:30.862Z,57.35
2018-10-05T02:45:31.148Z,57.73
2018-10-05T02:46:31.183Z,57.25
2018-10-05T02:47:30.968Z,57.54
2018-10-05T02:48:31.010Z,57.35
2018-10-05T02:49:31.042Z,58.02
2018-10-05T02:50:31.333Z,57.45
2018-10-05T02:51:31.111Z,57.45
2018-10-05T02:52:31.154Z,57.54
2018-10-05T02:53:31.191Z,57.73
2018-10-05T02:54:31.224Z,57.54
2018-10-05T02:55:31.261Z,57.83
2018-10-05T02:56:31.297Z,57.76
2018-10-05T02:57:31.333Z,57.64
2018-10-05T02:58:31.366Z,57.76
2018-10-05T02:59:31.398Z,57.95
2018-10-05T03:00:31.434Z,57.54
2018-10-05T03:01:31.470Z,57.35
2018-10-05T03:02:31.512Z,57.83
2018-10-05T03:03:31.547Z,57.47
2018-10-05T03:04:31.576Z,57.54
2018-10-05T03:05:31.619Z,57.35
2018-10-05T03:06:31.648Z,57.45
2018-10-05T03:07:31.685Z,57.64
2018-10-05T03:08:31.720Z,57.25
2018-10-05T03:09:31.755Z,57.25
2018-10-05T03:10:31.791Z,57.15
2018-10-05T03:11:31.891Z,56.87
2018-10-05T03:12:31.869Z,56.80
2018-10-05T03:13:31.906Z,56.67
2018-10-05T03:14:31.941Z,56.48
2018-10-05T03:15:31.977Z,56.99
2018-10-05T03:16:32.256Z,56.38
2018-10-05T03:17:32.048Z,56.38
2018-10-05T03:18:32.084Z,56.67
2018-10-05T03:19:32.119Z,56.87
2018-10-05T03:20:32.155Z,56.38
2018-10-05T03:21:32.193Z,56.67
2018-10-05T03:22:32.227Z,56.70
2018-10-05T03:23:32.516Z,56.58
2018-10-05T03:24:32.291Z,55.62
2018-10-05T03:25:32.326Z,55.62
2018-10-05T03:26:32.361Z,55.81
2018-10-05T03:27:32.405Z,55.16
2018-10-05T03:28:32.686Z,54.75
2018-10-05T03:29:32.470Z,55.62
2018-10-05T03:30:32.514Z,54.56
2018-10-05T03:31:32.548Z,55.23
2018-10-05T03:32:32.577Z,55.52
2018-10-05T03:33:32.620Z,55.13
2018-10-05T03:34:32.647Z,55.23
2018-10-05T03:35:32.684Z,55.43
2018-10-05T03:36:32.720Z,54.56
2018-10-05T03:37:33.004Z,54.65
2018-10-05T03:38:32.797Z,54.17
2018-10-05T03:39:32.832Z,54.65
2018-10-05T03:40:32.868Z,54.27
2018-10-05T03:41:32.907Z,53.88
2018-10-05T03:42:32.937Z,54.36
2018-10-05T03:43:32.968Z,54.65
2018-10-05T03:44:33.003Z,54.75
2018-10-05T03:45:33.041Z,55.13
2018-10-05T03:46:33.074Z,55.71
2018-10-05T03:47:33.362Z,57.25
2018-10-05T03:48:33.154Z,58.44
2018-10-05T03:49:33.190Z,58.72
2018-10-05T03:50:33.219Z,59.49
2018-10-05T03:51:33.254Z,60.55
2018-10-05T03:52:33.290Z,61.04
2018-10-05T03:53:33.326Z,61.42
2018-10-05T03:54:33.811Z,59.88
2018-10-05T03:55:33.397Z,58.92
2018-10-05T03:56:33.433Z,58.53
2018-10-05T03:57:33.468Z,58.92
2018-10-05T03:58:33.503Z,59.11
2018-10-05T03:59:33.541Z,58.72
2018-10-05T04:00:35.079Z,58.24
2018-10-05T04:01:33.613Z,59.01
2018-10-05T04:02:33.653Z,58.63
2018-10-05T04:03:33.691Z,58.44
2018-10-05T04:04:33.719Z,58.63
2018-10-05T04:05:33.754Z,58.34
2018-10-05T04:06:33.796Z,58.15
2018-10-05T04:07:33.832Z,58.50
2018-10-05T04:08:33.868Z,58.60
2018-10-05T04:09:33.957Z,58.05
2018-10-05T04:10:33.932Z,58.50
2018-10-05T04:11:35.488Z,58.53
2018-10-05T04:12:34.006Z,58.34
2018-10-05T04:13:34.046Z,58.12
2018-10-05T04:14:35.586Z,58.05
2018-10-05T04:15:34.117Z,57.37
2018-10-05T04:16:34.154Z,57.86
2018-10-05T04:17:34.193Z,57.18
2018-10-05T04:18:34.218Z,58.34
2018-10-05T04:19:34.254Z,57.18
2018-10-05T04:20:34.289Z,56.96
2018-10-05T04:21:34.326Z,57.37
2018-10-05T04:22:34.361Z,56.70
2018-10-05T04:23:34.647Z,56.80
2018-10-05T04:24:34.492Z,56.96
2018-10-05T04:25:34.469Z,56.70
2018-10-05T04:26:34.502Z,56.90
2018-10-05T04:27:34.542Z,56.87
2018-10-05T04:28:34.582Z,57.06
2018-10-05T04:29:34.619Z,56.96
2018-10-05T04:30:34.652Z,57.25
2018-10-05T04:31:34.689Z,56.77
2018-10-05T04:32:34.727Z,56.70
2018-10-05T04:33:34.761Z,56.20
2018-10-05T04:34:35.046Z,57.06
2018-10-05T04:35:34.959Z,56.96
2018-10-05T04:36:34.867Z,56.60
2018-10-05T04:37:34.905Z,57.06
2018-10-05T04:38:34.931Z,56.38
2018-10-05T04:39:34.967Z,56.38
2018-10-05T04:40:35.253Z,56.48
2018-10-05T04:41:35.041Z,56.38
2018-10-05T04:42:35.082Z,56.87
2018-10-05T04:43:35.367Z,55.71
2018-10-05T04:44:35.152Z,56.67
2018-10-05T04:45:35.188Z,56.96
2018-10-05T04:46:35.222Z,56.77
2018-10-05T04:47:35.251Z,56.96
2018-10-05T04:48:35.537Z,56.58
2018-10-05T04:49:35.397Z,56.58
2018-10-05T04:50:35.365Z,56.20
2018-10-05T04:51:35.652Z,56.48
2018-10-05T04:52:35.441Z,55.23
2018-10-05T04:53:35.472Z,55.81
2018-10-05T04:54:35.500Z,55.43
2018-10-05T04:55:35.535Z,55.81
2018-10-05T04:56:35.604Z,56.29
2018-10-05T04:57:35.862Z,55.90
2018-10-05T04:58:35.645Z,56.48
2018-10-05T04:59:35.687Z,55.04
2018-10-05T05:00:35.715Z,55.90
2018-10-05T05:01:35.751Z,56.10
2018-10-05T05:02:35.786Z,55.71
2018-10-05T05:03:35.895Z,55.81
2018-10-05T05:04:35.857Z,55.43
2018-10-05T05:05:35.893Z,54.94
2018-10-05T05:06:35.935Z,55.71
2018-10-05T05:07:35.970Z,55.81
2018-10-05T05:08:36.257Z,55.23
2018-10-05T05:09:36.043Z,56.00
2018-10-05T05:10:36.078Z,55.13
2018-10-05T05:11:36.113Z,54.56
2018-10-05T05:12:36.141Z,54.65
2018-10-05T05:13:36.529Z,56.87
2018-10-05T05:14:36.220Z,55.52
2018-10-05T05:15:36.256Z,54.94
2018-10-05T05:16:36.284Z,55.81
2018-10-05T05:17:36.325Z,56.96
2018-10-05T05:18:36.609Z,56.77
2018-10-05T05:19:36.506Z,58.92
2018-10-05T05:20:36.434Z,56.60
2018-10-05T05:21:36.472Z,57.15
2018-10-05T05:22:36.498Z,56.96
2018-10-05T05:23:36.535Z,55.81
2018-10-05T05:24:36.571Z,56.00
2018-10-05T05:25:36.606Z,56.20
2018-10-05T05:26:36.650Z,55.04
2018-10-05T05:27:36.682Z,56.77
2018-10-05T05:28:36.711Z,56.77
2018-10-05T05:29:36.748Z,56.67
2018-10-05T05:30:37.041Z,56.48
2018-10-05T05:31:36.826Z,56.10
2018-10-05T05:32:36.854Z,55.43
2018-10-05T05:33:37.052Z,55.81
2018-10-05T05:34:36.933Z,56.77
2018-10-05T05:35:36.967Z,55.33
2018-10-05T05:36:37.003Z,53.59
2018-10-05T05:37:37.039Z,54.36
2018-10-05T05:38:37.073Z,55.90
2018-10-05T05:39:37.103Z,54.49
2018-10-05T05:40:37.139Z,55.71
2018-10-05T05:41:37.175Z,54.46
2018-10-05T05:42:37.217Z,54.56
2018-10-05T05:43:37.253Z,55.33
2018-10-05T05:44:37.289Z,54.08
2018-10-05T05:45:37.376Z,54.85
2018-10-05T05:46:37.354Z,54.56
2018-10-05T05:47:37.388Z,54.85
2018-10-05T05:48:37.423Z,54.65
2018-10-05T05:49:37.459Z,54.46
2018-10-05T05:50:37.501Z,54.56
2018-10-05T05:51:37.543Z,56.29
2018-10-05T05:52:37.573Z,54.65
2018-10-05T05:53:37.604Z,54.27
2018-10-05T05:54:37.636Z,54.65
2018-10-05T05:55:37.671Z,55.23
2018-10-05T05:56:37.714Z,56.00
2018-10-05T05:57:37.743Z,54.75
2018-10-05T05:58:38.035Z,52.73
2018-10-05T05:59:37.823Z,55.13
2018-10-05T06:00:37.857Z,54.65
2018-10-05T06:01:37.893Z,54.75
2018-10-05T06:02:37.927Z,55.71
2018-10-05T06:03:37.962Z,56.00
2018-10-05T06:04:37.992Z,55.13
2018-10-05T06:05:38.028Z,55.71
2018-10-05T06:06:38.062Z,55.04
2018-10-05T06:07:38.098Z,54.36
2018-10-05T06:08:38.391Z,54.17
2018-10-05T06:09:38.177Z,55.43
2018-10-05T06:10:38.204Z,55.33
2018-10-05T06:11:38.240Z,54.56
2018-10-05T06:12:38.276Z,55.71
2018-10-05T06:13:38.319Z,56.00
2018-10-05T06:14:38.347Z,56.10
2018-10-05T06:15:38.383Z,56.48
2018-10-05T06:16:38.419Z,56.20
2018-10-05T06:17:38.454Z,55.81
2018-10-05T06:18:38.489Z,54.56
2018-10-05T06:19:38.526Z,55.71
2018-10-05T06:20:38.564Z,55.90
2018-10-05T06:21:38.667Z,56.96
2018-10-05T06:22:38.736Z,56.58
2018-10-05T06:23:38.668Z,54.46
2018-10-05T06:24:38.706Z,54.27
2018-10-05T06:25:38.737Z,54.75
2018-10-05T06:26:39.023Z,55.52
2018-10-05T06:27:38.810Z,56.10
2018-10-05T06:28:38.852Z,56.77
2018-10-05T06:29:38.894Z,55.33
2018-10-05T06:30:38.957Z,56.00
2018-10-05T06:31:38.958Z,55.33
2018-10-05T06:32:39.244Z,54.08
2018-10-05T06:33:39.031Z,54.65
2018-10-05T06:34:39.064Z,55.23
2018-10-05T06:35:39.105Z,56.00
2018-10-05T06:36:39.129Z,56.20
2018-10-05T06:37:39.421Z,55.71
2018-10-05T06:38:39.457Z,56.87
2018-10-05T06:39:39.247Z,56.20
2018-10-05T06:40:39.271Z,54.27
2018-10-05T06:41:39.313Z,56.00
2018-10-05T06:42:39.643Z,55.62
2018-10-05T06:43:39.387Z,56.00
2018-10-05T06:44:39.422Z,56.48
2018-10-05T06:45:39.711Z,55.90
2018-10-05T06:46:39.490Z,56.58
2018-10-05T06:47:39.526Z,57.15
2018-10-05T06:48:39.556Z,57.25
2018-10-05T06:49:39.590Z,57.45
2018-10-05T06:50:39.626Z,59.37
2018-10-05T06:51:39.668Z,60.24
2018-10-05T06:52:39.704Z,60.27
2018-10-05T06:53:39.740Z,59.94
2018-10-05T06:54:40.020Z,60.04
2018-10-05T06:55:39.813Z,59.30
2018-10-05T06:56:39.848Z,58.79
2018-10-05T06:57:39.884Z,58.60
2018-10-05T06:58:39.919Z,58.22
2018-10-05T06:59:39.954Z,58.22
2018-10-05T07:00:39.994Z,58.50
2018-10-05T07:01:40.289Z,57.35
2018-10-05T07:02:40.306Z,57.83
2018-10-05T07:03:40.091Z,58.31
2018-10-05T07:04:40.131Z,57.45
2018-10-05T07:05:40.165Z,57.35
2018-10-05T07:06:40.204Z,57.25
2018-10-05T07:07:40.275Z,57.54
2018-10-05T07:08:40.276Z,57.45
2018-10-05T07:09:40.313Z,57.25
2018-10-05T07:10:40.346Z,57.54
2018-10-05T07:11:40.384Z,58.31
2018-10-05T07:12:40.412Z,57.83
2018-10-05T07:13:40.447Z,58.22
2018-10-05T07:14:40.485Z,57.25
2018-10-05T07:15:40.564Z,57.25
2018-10-05T07:16:40.554Z,57.06
2018-10-05T07:17:40.591Z,56.00
2018-10-05T07:18:40.631Z,56.87
2018-10-05T07:19:40.660Z,57.15
2018-10-05T07:20:40.704Z,57.15
2018-10-05T07:21:40.738Z,57.15
2018-10-05T07:22:41.018Z,57.06
2018-10-05T07:23:41.053Z,57.25
2018-10-05T07:24:40.840Z,56.87
2018-10-05T07:25:40.880Z,57.06
2018-10-05T07:26:40.909Z,55.81
2018-10-05T07:27:40.945Z,56.29
2018-10-05T07:28:41.001Z,56.38
2018-10-05T07:29:41.017Z,56.29
2018-10-05T07:30:41.058Z,56.87
2018-10-05T07:31:41.095Z,57.35
2018-10-05T07:32:41.134Z,56.77
2018-10-05T07:33:41.159Z,57.09
2018-10-05T07:34:41.194Z,57.76
2018-10-05T07:35:41.230Z,58.89
2018-10-05T07:36:41.265Z,58.79
2018-10-05T07:37:41.302Z,57.45
2018-10-05T07:38:41.337Z,57.37
2018-10-05T07:39:41.623Z,57.54
2018-10-05T07:40:41.408Z,55.52
2018-10-05T07:41:41.444Z,56.87
2018-10-05T07:42:41.487Z,56.48
2018-10-05T07:43:41.526Z,56.00
2018-10-05T07:44:41.810Z,56.48
2018-10-05T07:45:41.593Z,57.06
2018-10-05T07:46:41.631Z,57.25
2018-10-05T07:47:41.664Z,55.90
2018-10-05T07:48:41.703Z,57.15
2018-10-05T07:49:41.730Z,56.77
2018-10-05T07:50:42.021Z,56.77
2018-10-05T07:51:41.861Z,57.15
2018-10-05T07:52:41.886Z,56.87
2018-10-05T07:53:41.872Z,57.64
2018-10-05T07:54:41.906Z,57.45
2018-10-05T07:55:41.942Z,57.35
2018-10-05T07:56:41.985Z,56.87
2018-10-05T07:57:42.325Z,56.67
2018-10-05T07:58:42.055Z,56.20
2018-10-05T07:59:42.091Z,55.81
2018-10-05T08:00:42.127Z,56.10
2018-10-05T08:01:42.163Z,56.29
2018-10-05T08:02:42.191Z,55.52
2018-10-05T08:03:42.226Z,56.58
2018-10-05T08:04:42.263Z,56.48
2018-10-05T08:05:42.297Z,57.15
2018-10-05T08:06:42.339Z,57.15
2018-10-05T08:07:42.376Z,56.87
2018-10-05T08:08:42.411Z,57.15
2018-10-05T08:09:42.525Z,56.87
2018-10-05T08:10:42.480Z,56.87
2018-10-05T08:11:42.513Z,56.87
2018-10-05T08:12:42.547Z,56.67
2018-10-05T08:13:42.589Z,57.06
2018-10-05T08:14:42.617Z,56.10
2018-10-05T08:15:42.903Z,55.13
2018-10-05T08:16:42.696Z,55.81
2018-10-05T08:17:42.733Z,55.81
2018-10-05T08:18:42.760Z,56.00
2018-10-05T08:19:42.796Z,56.48
2018-10-05T08:20:42.831Z,56.96
2018-10-05T08:21:43.118Z,56.77
2018-10-05T08:22:43.159Z,56.77
2018-10-05T08:23:42.944Z,56.77
2018-10-05T08:24:42.981Z,55.90
2018-10-05T08:25:43.017Z,55.62
2018-10-05T08:26:43.045Z,56.58
2018-10-05T08:27:43.130Z,55.71
2018-10-05T08:28:43.116Z,56.00
2018-10-05T08:29:43.152Z,55.52
2018-10-05T08:30:43.194Z,56.20
2018-10-05T08:31:43.229Z,55.13
2018-10-05T08:32:43.265Z,55.62
2018-10-05T08:33:43.301Z,56.48
2018-10-05T08:34:43.329Z,56.67
2018-10-05T08:35:43.365Z,56.48
2018-10-05T08:36:43.401Z,57.15
2018-10-05T08:37:43.436Z,57.06
2018-10-05T08:38:43.481Z,57.15
2018-10-05T08:39:43.604Z,56.87
2018-10-05T08:40:43.543Z,56.96
2018-10-05T08:41:43.578Z,57.15
2018-10-05T08:42:43.617Z,57.25
2018-10-05T08:43:43.649Z,56.29
2018-10-05T08:44:43.692Z,56.58
2018-10-05T08:45:43.736Z,56.00
2018-10-05T08:46:43.764Z,55.81
2018-10-05T08:47:43.799Z,56.67
2018-10-05T08:48:43.835Z,56.67
2018-10-05T08:49:43.871Z,56.87
2018-10-05T08:50:43.899Z,56.48
2018-10-05T08:51:43.957Z,56.77
2018-10-05T08:52:43.977Z,56.67
2018-10-05T08:53:44.012Z,56.87
2018-10-05T08:54:44.041Z,55.81
2018-10-05T08:55:44.077Z,56.48
2018-10-05T08:56:44.113Z,57.15
2018-10-05T08:57:44.149Z,56.87
2018-10-05T08:58:44.190Z,55.62
2018-10-05T08:59:44.490Z,56.00
2018-10-05T09:00:44.258Z,55.52
2018-10-05T09:01:44.290Z,56.00
2018-10-05T09:02:44.325Z,56.20
2018-10-05T09:03:44.361Z,55.62
2018-10-05T09:04:44.396Z,55.04
2018-10-05T09:05:44.496Z,55.71
2018-10-05T09:06:44.475Z,55.52
2018-10-05T09:07:44.510Z,55.62
2018-10-05T09:08:44.797Z,56.00
2018-10-05T09:09:44.582Z,55.62
2018-10-05T09:10:44.614Z,55.71
2018-10-05T09:11:44.652Z,56.87
2018-10-05T09:12:44.689Z,55.81
2018-10-05T09:13:44.724Z,56.38
2018-10-05T09:14:44.752Z,56.96
2018-10-05T09:15:44.788Z,56.87
2018-10-05T09:16:44.841Z,56.87
2018-10-05T09:17:44.978Z,56.67
2018-10-05T09:18:44.895Z,56.87
2018-10-05T09:19:44.983Z,56.77
2018-10-05T09:20:44.966Z,55.90
2018-10-05T09:21:45.001Z,55.71
2018-10-05T09:22:45.046Z,56.29
2018-10-05T09:23:45.080Z,56.58
2018-10-05T09:24:45.107Z,56.67
2018-10-05T09:25:45.395Z,55.81
2018-10-05T09:26:45.179Z,56.58
2018-10-05T09:27:45.215Z,56.87
2018-10-05T09:28:45.253Z,56.77
2018-10-05T09:29:45.337Z,56.77
2018-10-05T09:30:45.417Z,55.71
2018-10-05T09:31:45.364Z,55.71
2018-10-05T09:32:45.399Z,56.48
2018-10-05T09:33:45.436Z,55.71
2018-10-05T09:34:45.714Z,54.75
2018-10-05T09:35:45.498Z,55.33
2018-10-05T09:36:45.535Z,56.38
2018-10-05T09:37:45.587Z,56.87
2018-10-05T09:38:45.613Z,56.87
2018-10-05T09:39:45.642Z,56.67
2018-10-05T09:40:45.677Z,55.23
2018-10-05T09:41:45.713Z,56.48
2018-10-05T09:42:45.748Z,57.06
2018-10-05T09:43:45.784Z,57.15
2018-10-05T09:44:46.112Z,56.87
2018-10-05T09:45:45.855Z,56.67
2018-10-05T09:46:46.153Z,55.81
2018-10-05T09:47:45.932Z,55.33
2018-10-05T09:48:45.968Z,56.77
2018-10-05T09:49:46.004Z,56.10
2018-10-05T09:50:46.039Z,57.06
2018-10-05T09:51:46.124Z,56.77
2018-10-05T09:52:46.205Z,55.71
2018-10-05T09:53:46.147Z,56.87
2018-10-05T09:54:46.181Z,56.87
2018-10-05T09:55:46.211Z,57.06
2018-10-05T09:56:46.246Z,56.67
2018-10-05T09:57:46.282Z,57.06
2018-10-05T09:58:46.324Z,57.06
2018-10-05T09:59:46.375Z,56.67
2018-10-05T10:00:46.397Z,56.10
2018-10-05T10:01:46.431Z,55.43
2018-10-05T10:02:46.712Z,55.71
2018-10-05T10:03:46.494Z,56.87
2018-10-05T10:04:46.530Z,56.77
2018-10-05T10:05:46.568Z,57.45
2018-10-05T10:06:46.601Z,57.06
2018-10-05T10:07:46.681Z,57.54
2018-10-05T10:08:46.673Z,57.45
2018-10-05T10:09:46.758Z,57.15
2018-10-05T10:10:46.751Z,57.06
2018-10-05T10:11:46.787Z,56.58
2018-10-05T10:12:46.823Z,56.20
2018-10-05T10:13:47.111Z,57.15
2018-10-05T10:14:46.885Z,57.15
2018-10-05T10:15:46.923Z,56.77
2018-10-05T10:16:46.964Z,57.06
2018-10-05T10:17:46.993Z,56.87
2018-10-05T10:18:47.027Z,56.87
2018-10-05T10:19:47.064Z,57.25
2018-10-05T10:20:47.100Z,56.77
2018-10-05T10:21:47.136Z,57.45
2018-10-05T10:22:47.307Z,57.06
2018-10-05T10:23:47.213Z,56.87
2018-10-05T10:24:47.400Z,57.25
2018-10-05T10:25:47.285Z,57.06
2018-10-05T10:26:47.313Z,57.45
2018-10-05T10:27:47.439Z,56.67
2018-10-05T10:28:47.608Z,56.87
2018-10-05T10:29:47.420Z,56.67
2018-10-05T10:30:47.454Z,56.96
2018-10-05T10:31:47.492Z,56.20
2018-10-05T10:32:47.527Z,56.96
2018-10-05T10:33:47.945Z,56.96
2018-10-05T10:34:47.642Z,56.77
2018-10-05T10:35:47.634Z,56.87
2018-10-05T10:36:47.838Z,55.90
2018-10-05T10:37:47.706Z,56.96
2018-10-05T10:38:47.747Z,56.87
2018-10-05T10:39:47.827Z,56.67
2018-10-05T10:40:48.063Z,57.15
2018-10-05T10:41:48.098Z,56.00
2018-10-05T10:42:47.886Z,56.96
2018-10-05T10:43:47.917Z,56.96
2018-10-05T10:44:47.955Z,56.77
2018-10-05T10:45:47.990Z,56.67
2018-10-05T10:46:48.276Z,56.96
2018-10-05T10:47:48.060Z,56.96
2018-10-05T10:48:48.103Z,56.96
2018-10-05T10:49:48.140Z,55.52
2018-10-05T10:50:48.168Z,55.13
2018-10-05T10:51:48.210Z,56.38
2018-10-05T10:52:48.246Z,56.38
2018-10-05T10:53:48.282Z,56.67
2018-10-05T10:54:48.310Z,57.25
2018-10-05T10:55:48.347Z,57.54
2018-10-05T10:56:48.381Z,57.15
2018-10-05T10:57:48.417Z,57.15
2018-10-05T10:58:48.459Z,56.87
2018-10-05T10:59:48.497Z,56.87
2018-10-05T11:00:48.600Z,56.87
2018-10-05T11:01:48.568Z,56.67
2018-10-05T11:02:48.602Z,56.96
2018-10-05T11:03:48.640Z,57.15
2018-10-05T11:04:48.704Z,56.87
2018-10-05T11:05:48.709Z,56.87
2018-10-05T11:06:48.738Z,56.29
2018-10-05T11:07:48.779Z,56.67
2018-10-05T11:08:48.815Z,57.06
2018-10-05T11:09:48.851Z,56.58
2018-10-05T11:10:48.879Z,56.96
2018-10-05T11:11:48.923Z,57.06
2018-10-05T11:12:48.957Z,56.96
2018-10-05T11:13:48.993Z,56.77
2018-10-05T11:14:49.021Z,57.06
2018-10-05T11:15:49.065Z,57.06
2018-10-05T11:16:49.142Z,55.90
2018-10-05T11:17:49.129Z,56.48
2018-10-05T11:18:49.167Z,57.06
2018-10-05T11:19:49.201Z,57.15
2018-10-05T11:20:49.235Z,57.06
2018-10-05T11:21:49.271Z,56.96
2018-10-05T11:22:49.313Z,56.87
2018-10-05T11:23:49.349Z,56.77
2018-10-05T11:24:49.384Z,56.29
2018-10-05T11:25:49.420Z,56.77
2018-10-05T11:26:49.451Z,56.48
2018-10-05T11:27:49.484Z,57.06
2018-10-05T11:28:49.520Z,57.15
2018-10-05T11:29:49.595Z,56.77
2018-10-05T11:30:49.595Z,56.77
2018-10-05T11:31:49.878Z,56.77
2018-10-05T11:32:49.669Z,56.87
2018-10-05T11:33:49.704Z,56.96
2018-10-05T11:34:49.732Z,55.62
2018-10-05T11:35:49.768Z,56.77
2018-10-05T11:36:49.804Z,57.15
2018-10-05T11:37:49.840Z,57.45
2018-10-05T11:38:49.882Z,55.81
2018-10-05T11:39:49.931Z,56.77
2018-10-05T11:40:49.959Z,56.48
2018-10-05T11:41:49.988Z,55.23
2018-10-05T11:42:50.026Z,55.23
2018-10-05T11:43:50.055Z,56.58
2018-10-05T11:44:50.089Z,57.15
2018-10-05T11:45:50.132Z,57.06
2018-10-05T11:46:50.170Z,57.25
2018-10-05T11:47:50.203Z,56.38
2018-10-05T11:48:50.243Z,56.10
2018-10-05T11:49:50.269Z,57.25
2018-10-05T11:50:50.300Z,58.40
2018-10-05T11:51:50.341Z,57.25
2018-10-05T11:52:50.375Z,58.50
2018-10-05T11:53:50.410Z,59.56
2018-10-05T11:54:50.446Z,59.08
2018-10-05T11:55:50.480Z,59.56
2018-10-05T11:56:50.517Z,60.14
2018-10-05T11:57:50.553Z,61.00
2018-10-05T11:58:50.589Z,60.62
2018-10-05T11:59:50.855Z,62.09
2018-10-05T12:00:50.667Z,63.70
2018-10-05T12:01:50.704Z,64.12
2018-10-05T12:02:50.740Z,62.19
2018-10-05T12:03:50.772Z,60.75
2018-10-05T12:04:50.808Z,60.55
2018-10-05T12:05:50.836Z,59.97
2018-10-05T12:06:51.130Z,59.75
2018-10-05T12:07:50.915Z,59.94
2018-10-05T12:08:50.951Z,59.97
2018-10-05T12:09:50.987Z,60.14
2018-10-05T12:10:51.015Z,60.36
2018-10-05T12:11:51.058Z,60.62
2018-10-05T12:12:51.345Z,60.75
2018-10-05T12:13:51.234Z,59.88
2018-10-05T12:14:51.165Z,59.69
2018-10-05T12:15:51.201Z,59.49
2018-10-05T12:16:51.240Z,58.98
2018-10-05T12:17:51.273Z,59.56
2018-10-05T12:18:51.301Z,58.89
2018-10-05T12:19:51.627Z,58.79
2018-10-05T12:20:51.375Z,59.69
2018-10-05T12:21:51.409Z,60.04
2018-10-05T12:22:51.453Z,59.85
2018-10-05T12:23:51.487Z,59.88
2018-10-05T12:24:51.522Z,60.27
2018-10-05T12:25:51.556Z,60.17
2018-10-05T12:26:51.587Z,60.14
2018-10-05T12:27:51.623Z,58.98
2018-10-05T12:28:51.658Z,59.11
2018-10-05T12:29:51.697Z,59.37
2018-10-05T12:30:51.737Z,58.60
2018-10-05T12:31:51.772Z,58.50
2018-10-05T12:32:51.801Z,59.56
2018-10-05T12:33:51.838Z,59.85
2018-10-05T12:34:51.876Z,59.66
2018-10-05T12:35:52.059Z,60.36
2018-10-05T12:36:51.945Z,59.97
2018-10-05T12:37:51.981Z,59.27
2018-10-05T12:38:52.023Z,59.37
2018-10-05T12:39:52.058Z,58.89
2018-10-05T12:40:52.097Z,58.34
2018-10-05T12:41:52.151Z,58.50
2018-10-05T12:42:52.159Z,58.53
2018-10-05T12:43:52.195Z,58.44
2018-10-05T12:44:52.481Z,59.59
2018-10-05T12:45:52.265Z,59.11
2018-10-05T12:46:52.309Z,59.37
2018-10-05T12:47:52.343Z,59.20
2018-10-05T12:48:52.380Z,58.89
2018-10-05T12:49:52.415Z,58.70
2018-10-05T12:50:52.444Z,59.40
2018-10-05T12:51:52.480Z,59.08
2018-10-05T12:52:52.516Z,58.70